UPS72X ENGM-LOWG
Flight info
| Callsign | UPS72X |
|---|---|
| Flight time | 2h 2m |
| Altitude | 31000 |
| Route | OKSAT L996 GETPA/N0487F370 L996 KELIN DCT SALLO DCT MAREM DCT APRAQ DCT LEOBE LEOBE2M |
| Aircraft | MD11/H-SDE1E2E3FGHIJ2J3J4J5M1RWXY/LB1D1 |
Departure
| Time | 2026-05-06 12:17 |
|---|---|
| Airport | Oslo-Gardermoen International Airport (ENGM) |
Arrival
| Time | 2026-05-06 14:19 |
|---|---|
| Airport | Graz Airport (LOWG) |
| Time | Latitude | Longitude | Altitude | Speed | Heading |
|---|---|---|---|---|---|
| 2026-05-06 11:56 | 60.19148 | 11.10631 | 699 ft | 0 kts | 196° |
| 2026-05-06 12:08 | 60.19167 | 11.10642 | 689 ft | 4 kts | 196° |
| 2026-05-06 12:08 | 60.19191 | 11.10656 | 689 ft | 2 kts | 196° |
| 2026-05-06 12:08 | 60.19193 | 11.10657 | 689 ft | 0 kts | 196° |
| 2026-05-06 12:12 | 60.19192 | 11.10657 | 689 ft | 0 kts | 192° |
| 2026-05-06 12:12 | 60.19189 | 11.10660 | 689 ft | 1 kts | 173° |
| 2026-05-06 12:12 | 60.19185 | 11.10672 | 689 ft | 1 kts | 134° |
| 2026-05-06 12:12 | 60.19178 | 11.10724 | 690 ft | 9 kts | 105° |
| 2026-05-06 12:13 | 60.19165 | 11.10915 | 697 ft | 19 kts | 100° |
| 2026-05-06 12:13 | 60.19167 | 11.11111 | 689 ft | 7 kts | 53° |
| 2026-05-06 12:13 | 60.19220 | 11.11167 | 694 ft | 11 kts | 17° |
| 2026-05-06 12:13 | 60.19311 | 11.11217 | 692 ft | 16 kts | 15° |
| 2026-05-06 12:14 | 60.19430 | 11.11284 | 692 ft | 20 kts | 17° |
| 2026-05-06 12:14 | 60.19579 | 11.11373 | 694 ft | 24 kts | 15° |
| 2026-05-06 12:14 | 60.19754 | 11.11472 | 694 ft | 28 kts | 15° |
| 2026-05-06 12:14 | 60.19954 | 11.11592 | 690 ft | 31 kts | 15° |
| 2026-05-06 12:15 | 60.20122 | 11.11688 | 691 ft | 17 kts | 17° |
| 2026-05-06 12:15 | 60.20152 | 11.11720 | 688 ft | 1 kts | 55° |
| 2026-05-06 12:15 | 60.20161 | 11.11771 | 690 ft | 6 kts | 76° |
| 2026-05-06 12:15 | 60.20161 | 11.11865 | 698 ft | 7 kts | 99° |
| 2026-05-06 12:16 | 60.20151 | 11.11943 | 691 ft | 8 kts | 102° |
| 2026-05-06 12:16 | 60.20131 | 11.12085 | 694 ft | 12 kts | 114° |
| 2026-05-06 12:16 | 60.20053 | 11.12189 | 699 ft | 17 kts | 176° |
| 2026-05-06 12:16 | 60.19753 | 11.12043 | 693 ft | 90 kts | 195° |
| 2026-05-06 12:17 | 60.18844 | 11.11514 | 719 ft | 175 kts | 196° |
| 2026-05-06 12:17 | 60.17615 | 11.10737 | 1524 ft | 184 kts | 208° |
| 2026-05-06 12:17 | 60.16785 | 11.09048 | 2912 ft | 173 kts | 242° |
| 2026-05-06 12:17 | 60.16318 | 11.06813 | 3877 ft | 176 kts | 249° |
| 2026-05-06 12:18 | 60.15841 | 11.04290 | 4243 ft | 211 kts | 249° |
| 2026-05-06 12:18 | 60.15267 | 11.01338 | 4427 ft | 242 kts | 249° |
| 2026-05-06 12:18 | 60.14620 | 10.98084 | 5030 ft | 253 kts | 251° |
| 2026-05-06 12:18 | 60.14144 | 10.94683 | 6067 ft | 255 kts | 250° |
| 2026-05-06 12:19 | 60.13169 | 10.91707 | 7057 ft | 259 kts | 222° |
| 2026-05-06 12:19 | 60.11584 | 10.89973 | 8056 ft | 265 kts | 195° |
| 2026-05-06 12:19 | 60.09735 | 10.89895 | 9015 ft | 272 kts | 168° |
| 2026-05-06 12:19 | 60.08022 | 10.91544 | 9986 ft | 279 kts | 143° |
| 2026-05-06 12:20 | 60.06577 | 10.94434 | 10290 ft | 311 kts | 133° |
| 2026-05-06 12:20 | 60.05134 | 10.97966 | 10430 ft | 344 kts | 130° |
| 2026-05-06 12:20 | 60.03606 | 11.01822 | 11009 ft | 359 kts | 130° |
| 2026-05-06 12:20 | 60.02041 | 11.05795 | 11828 ft | 368 kts | 131° |
| 2026-05-06 12:21 | 60.00439 | 11.09856 | 12621 ft | 376 kts | 132° |
| 2026-05-06 12:21 | 59.98747 | 11.13828 | 13352 ft | 382 kts | 137° |
| 2026-05-06 12:21 | 59.96838 | 11.17542 | 14135 ft | 386 kts | 143° |
| 2026-05-06 12:21 | 59.94750 | 11.20936 | 14876 ft | 388 kts | 148° |
| 2026-05-06 12:22 | 59.92548 | 11.24080 | 15611 ft | 391 kts | 151° |
| 2026-05-06 12:22 | 59.90265 | 11.27082 | 16341 ft | 395 kts | 153° |
| 2026-05-06 12:22 | 59.87932 | 11.30018 | 17049 ft | 398 kts | 154° |
| 2026-05-06 12:22 | 59.85558 | 11.32939 | 17749 ft | 403 kts | 155° |
| 2026-05-06 12:23 | 59.83157 | 11.35867 | 18416 ft | 407 kts | 155° |
| 2026-05-06 12:23 | 59.80729 | 11.38818 | 19035 ft | 410 kts | 156° |
| 2026-05-06 12:23 | 59.78283 | 11.41787 | 19644 ft | 413 kts | 156° |
| 2026-05-06 12:23 | 59.75850 | 11.44739 | 20220 ft | 416 kts | 156° |
| 2026-05-06 12:24 | 59.73373 | 11.47740 | 20823 ft | 419 kts | 156° |
| 2026-05-06 12:24 | 59.70847 | 11.50798 | 21428 ft | 422 kts | 156° |
| 2026-05-06 12:24 | 59.68358 | 11.53805 | 22039 ft | 425 kts | 157° |
| 2026-05-06 12:24 | 59.65829 | 11.56854 | 22612 ft | 428 kts | 157° |
| 2026-05-06 12:25 | 59.63269 | 11.59937 | 23234 ft | 432 kts | 157° |
| 2026-05-06 12:25 | 59.60690 | 11.63037 | 23826 ft | 435 kts | 157° |
| 2026-05-06 12:25 | 59.58096 | 11.66150 | 24406 ft | 438 kts | 157° |
| 2026-05-06 12:25 | 59.55486 | 11.69278 | 24980 ft | 440 kts | 157° |
| 2026-05-06 12:26 | 59.52858 | 11.72419 | 25564 ft | 443 kts | 158° |
| 2026-05-06 12:26 | 59.50208 | 11.75582 | 26103 ft | 446 kts | 158° |
| 2026-05-06 12:26 | 59.47544 | 11.78755 | 26654 ft | 449 kts | 158° |
| 2026-05-06 12:26 | 59.44898 | 11.81899 | 27214 ft | 451 kts | 158° |
| 2026-05-06 12:27 | 59.42193 | 11.85077 | 27739 ft | 454 kts | 158° |
| 2026-05-06 12:27 | 59.39474 | 11.88255 | 28281 ft | 457 kts | 158° |
| 2026-05-06 12:27 | 59.36722 | 11.91443 | 28820 ft | 458 kts | 160° |
| 2026-05-06 12:27 | 59.33874 | 11.94158 | 29255 ft | 450 kts | 168° |
| 2026-05-06 12:28 | 59.30928 | 11.95685 | 29736 ft | 438 kts | 180° |
| 2026-05-06 12:28 | 59.27891 | 11.96001 | 30164 ft | 428 kts | 189° |
| 2026-05-06 12:28 | 59.24965 | 11.95635 | 30530 ft | 427 kts | 192° |
| 2026-05-06 12:28 | 59.21995 | 11.95066 | 30829 ft | 431 kts | 193° |
| 2026-05-06 12:29 | 59.16015 | 11.94024 | 30942 ft | 431 kts | 191° |
| 2026-05-06 12:29 | 59.10023 | 11.93253 | 30949 ft | 431 kts | 191° |
| 2026-05-06 12:30 | 59.04021 | 11.92595 | 30923 ft | 432 kts | 190° |
| 2026-05-06 12:30 | 58.98024 | 11.91956 | 30953 ft | 431 kts | 190° |
| 2026-05-06 12:31 | 58.92067 | 11.91319 | 30950 ft | 431 kts | 190° |
| 2026-05-06 12:31 | 58.86069 | 11.90675 | 30952 ft | 431 kts | 190° |
| 2026-05-06 12:32 | 58.80047 | 11.90403 | 30953 ft | 438 kts | 184° |
| 2026-05-06 12:32 | 58.73947 | 11.91820 | 30941 ft | 443 kts | 179° |
| 2026-05-06 12:33 | 58.67847 | 11.93649 | 30955 ft | 443 kts | 179° |
| 2026-05-06 12:33 | 58.61754 | 11.95397 | 30948 ft | 442 kts | 179° |
| 2026-05-06 12:34 | 58.55650 | 11.97070 | 30951 ft | 442 kts | 180° |
| 2026-05-06 12:34 | 58.49591 | 11.98701 | 30949 ft | 442 kts | 180° |
| 2026-05-06 12:35 | 58.43499 | 12.00336 | 30936 ft | 442 kts | 179° |
| 2026-05-06 12:35 | 58.37412 | 12.01969 | 30945 ft | 442 kts | 179° |
| 2026-05-06 12:36 | 58.31321 | 12.03598 | 30941 ft | 442 kts | 179° |
| 2026-05-06 12:36 | 58.25226 | 12.05223 | 30942 ft | 442 kts | 179° |
| 2026-05-06 12:37 | 58.19146 | 12.07324 | 30948 ft | 446 kts | 175° |
| 2026-05-06 12:37 | 58.13120 | 12.09983 | 30948 ft | 447 kts | 174° |
| 2026-05-06 12:38 | 58.07061 | 12.12701 | 30948 ft | 447 kts | 174° |
| 2026-05-06 12:38 | 58.00998 | 12.15369 | 30952 ft | 447 kts | 175° |
| 2026-05-06 12:39 | 57.94941 | 12.18002 | 30959 ft | 447 kts | 175° |
| 2026-05-06 12:39 | 57.88897 | 12.20616 | 30906 ft | 447 kts | 174° |
| 2026-05-06 12:40 | 57.82853 | 12.23220 | 30917 ft | 447 kts | 174° |
| 2026-05-06 12:40 | 57.76771 | 12.25833 | 30937 ft | 447 kts | 174° |
| 2026-05-06 12:41 | 57.70700 | 12.28434 | 30936 ft | 447 kts | 174° |
| 2026-05-06 12:41 | 57.64630 | 12.31025 | 30941 ft | 447 kts | 174° |
| 2026-05-06 12:42 | 57.58600 | 12.33589 | 30921 ft | 447 kts | 173° |
| 2026-05-06 12:42 | 57.52539 | 12.36158 | 30930 ft | 447 kts | 173° |
| 2026-05-06 12:43 | 57.46471 | 12.38722 | 30933 ft | 447 kts | 173° |
| 2026-05-06 12:43 | 57.40401 | 12.41269 | 30936 ft | 447 kts | 173° |
| 2026-05-06 12:44 | 57.34335 | 12.43788 | 30936 ft | 447 kts | 173° |
| 2026-05-06 12:44 | 57.28272 | 12.46311 | 30929 ft | 447 kts | 173° |
| 2026-05-06 12:45 | 57.22236 | 12.48824 | 30928 ft | 447 kts | 173° |
| 2026-05-06 12:46 | 57.13119 | 12.52609 | 30912 ft | 447 kts | 173° |
| 2026-05-06 12:46 | 57.07058 | 12.55115 | 30935 ft | 446 kts | 173° |
| 2026-05-06 12:47 | 57.00996 | 12.57611 | 30908 ft | 446 kts | 172° |
| 2026-05-06 12:47 | 56.94933 | 12.60099 | 30932 ft | 446 kts | 173° |
| 2026-05-06 12:48 | 56.88913 | 12.62562 | 30936 ft | 446 kts | 173° |
| 2026-05-06 12:48 | 56.82843 | 12.65037 | 30940 ft | 446 kts | 173° |
| 2026-05-06 12:49 | 56.76787 | 12.67498 | 30943 ft | 445 kts | 173° |
| 2026-05-06 12:49 | 56.70732 | 12.69950 | 30927 ft | 445 kts | 172° |
| 2026-05-06 12:50 | 56.64713 | 12.72380 | 30941 ft | 445 kts | 172° |
| 2026-05-06 12:50 | 56.58649 | 12.74810 | 30938 ft | 445 kts | 172° |
| 2026-05-06 12:51 | 56.52590 | 12.77217 | 30939 ft | 445 kts | 172° |
| 2026-05-06 12:51 | 56.46527 | 12.79634 | 30908 ft | 444 kts | 171° |
| 2026-05-06 12:52 | 56.40515 | 12.82028 | 30911 ft | 446 kts | 171° |
| 2026-05-06 12:52 | 56.34451 | 12.84435 | 30909 ft | 446 kts | 171° |
| 2026-05-06 12:53 | 56.28386 | 12.86836 | 30911 ft | 446 kts | 171° |
| 2026-05-06 12:53 | 56.22310 | 12.89233 | 30937 ft | 446 kts | 171° |
| 2026-05-06 12:54 | 56.16278 | 12.91605 | 30924 ft | 446 kts | 170° |
| 2026-05-06 12:54 | 56.11176 | 12.93606 | 30935 ft | 448 kts | 170° |
| 2026-05-06 12:55 | 56.05127 | 12.95971 | 30940 ft | 449 kts | 170° |
| 2026-05-06 12:55 | 55.99021 | 12.98351 | 30939 ft | 449 kts | 170° |
| 2026-05-06 12:56 | 55.92927 | 13.00718 | 30937 ft | 449 kts | 170° |
| 2026-05-06 12:56 | 55.86815 | 13.03085 | 30928 ft | 450 kts | 170° |
| 2026-05-06 12:57 | 55.80674 | 13.05452 | 30921 ft | 452 kts | 169° |
| 2026-05-06 12:57 | 55.74469 | 13.07845 | 30939 ft | 458 kts | 169° |
| 2026-05-06 12:58 | 55.68226 | 13.10232 | 30941 ft | 459 kts | 169° |
| 2026-05-06 12:58 | 55.61978 | 13.12593 | 30938 ft | 459 kts | 169° |
| 2026-05-06 12:59 | 55.55727 | 13.14964 | 30939 ft | 460 kts | 169° |
| 2026-05-06 12:59 | 55.49441 | 13.16535 | 30984 ft | 462 kts | 178° |
| 2026-05-06 12:59 | 55.46223 | 13.16748 | 31382 ft | 462 kts | 179° |
| 2026-05-06 13:00 | 55.43013 | 13.16912 | 31896 ft | 460 kts | 179° |
| 2026-05-06 13:00 | 55.39821 | 13.17118 | 32387 ft | 458 kts | 178° |
| 2026-05-06 13:00 | 55.36648 | 13.17379 | 32869 ft | 455 kts | 178° |
| 2026-05-06 13:00 | 55.33486 | 13.17684 | 33348 ft | 453 kts | 178° |
| 2026-05-06 13:01 | 55.30343 | 13.18014 | 33806 ft | 451 kts | 177° |
| 2026-05-06 13:01 | 55.27210 | 13.18356 | 34177 ft | 450 kts | 178° |
| 2026-05-06 13:01 | 55.24087 | 13.18700 | 34452 ft | 450 kts | 178° |
| 2026-05-06 13:01 | 55.20955 | 13.19045 | 34713 ft | 451 kts | 178° |
| 2026-05-06 13:02 | 55.17827 | 13.19387 | 34975 ft | 451 kts | 178° |
| 2026-05-06 13:02 | 55.14690 | 13.19729 | 35225 ft | 452 kts | 178° |
| 2026-05-06 13:02 | 55.11553 | 13.20070 | 35473 ft | 452 kts | 178° |
| 2026-05-06 13:02 | 55.08410 | 13.20410 | 35716 ft | 453 kts | 178° |
| 2026-05-06 13:03 | 55.05257 | 13.20751 | 35909 ft | 454 kts | 178° |
| 2026-05-06 13:03 | 55.02097 | 13.21091 | 36104 ft | 455 kts | 178° |
| 2026-05-06 13:03 | 54.98931 | 13.21432 | 36322 ft | 455 kts | 178° |
| 2026-05-06 13:03 | 54.95764 | 13.21773 | 36573 ft | 456 kts | 178° |
| 2026-05-06 13:04 | 54.92635 | 13.22110 | 36797 ft | 455 kts | 179° |
| 2026-05-06 13:04 | 54.86292 | 13.22789 | 36901 ft | 456 kts | 179° |
| 2026-05-06 13:05 | 54.79948 | 13.23467 | 36891 ft | 456 kts | 179° |
| 2026-05-06 13:05 | 54.73612 | 13.24141 | 36894 ft | 456 kts | 179° |
| 2026-05-06 13:06 | 54.67268 | 13.24809 | 36895 ft | 456 kts | 179° |
| 2026-05-06 13:06 | 54.60964 | 13.25472 | 36892 ft | 456 kts | 179° |
| 2026-05-06 13:07 | 54.54620 | 13.26140 | 36891 ft | 456 kts | 179° |
| 2026-05-06 13:07 | 54.48271 | 13.26808 | 36889 ft | 457 kts | 179° |
| 2026-05-06 13:08 | 54.41900 | 13.27476 | 36883 ft | 458 kts | 179° |
| 2026-05-06 13:08 | 54.35539 | 13.28141 | 36883 ft | 458 kts | 179° |
| 2026-05-06 13:09 | 54.29216 | 13.28799 | 36879 ft | 458 kts | 179° |
| 2026-05-06 13:09 | 54.22856 | 13.29460 | 36877 ft | 458 kts | 179° |
| 2026-05-06 13:10 | 54.16495 | 13.30118 | 36873 ft | 459 kts | 179° |
| 2026-05-06 13:10 | 54.10115 | 13.30777 | 36867 ft | 459 kts | 179° |
| 2026-05-06 13:11 | 54.03753 | 13.31432 | 36870 ft | 459 kts | 179° |
| 2026-05-06 13:11 | 53.97384 | 13.32085 | 36859 ft | 458 kts | 179° |
| 2026-05-06 13:12 | 53.91049 | 13.32733 | 36862 ft | 458 kts | 179° |
| 2026-05-06 13:12 | 53.84671 | 13.33379 | 36854 ft | 458 kts | 179° |
| 2026-05-06 13:13 | 53.78302 | 13.34022 | 36852 ft | 458 kts | 179° |
| 2026-05-06 13:13 | 53.71936 | 13.34666 | 36847 ft | 458 kts | 179° |
| 2026-05-06 13:14 | 53.65570 | 13.35309 | 36851 ft | 458 kts | 179° |
| 2026-05-06 13:14 | 53.59247 | 13.35946 | 36839 ft | 458 kts | 179° |
| 2026-05-06 13:15 | 53.52878 | 13.36585 | 36841 ft | 458 kts | 179° |
| 2026-05-06 13:15 | 53.46516 | 13.37222 | 36833 ft | 458 kts | 179° |
| 2026-05-06 13:16 | 53.40156 | 13.37857 | 36835 ft | 458 kts | 179° |
| 2026-05-06 13:16 | 53.33824 | 13.38487 | 36831 ft | 458 kts | 179° |
| 2026-05-06 13:17 | 53.27463 | 13.39118 | 36825 ft | 458 kts | 179° |
| 2026-05-06 13:17 | 53.21104 | 13.39747 | 36821 ft | 458 kts | 179° |
| 2026-05-06 13:18 | 53.14747 | 13.40375 | 36819 ft | 456 kts | 180° |
| 2026-05-06 13:18 | 53.08414 | 13.40998 | 36819 ft | 456 kts | 180° |
| 2026-05-06 13:19 | 53.02080 | 13.41615 | 36819 ft | 456 kts | 180° |
| 2026-05-06 13:19 | 52.95781 | 13.42226 | 36808 ft | 455 kts | 180° |
| 2026-05-06 13:20 | 52.89455 | 13.42842 | 36816 ft | 455 kts | 180° |
| 2026-05-06 13:20 | 52.83138 | 13.43456 | 36811 ft | 455 kts | 180° |
| 2026-05-06 13:21 | 52.76816 | 13.44068 | 36811 ft | 454 kts | 180° |
| 2026-05-06 13:21 | 52.70501 | 13.44679 | 36811 ft | 454 kts | 180° |
| 2026-05-06 13:22 | 52.64193 | 13.45286 | 36805 ft | 454 kts | 180° |
| 2026-05-06 13:22 | 52.57922 | 13.45888 | 36800 ft | 454 kts | 180° |
| 2026-05-06 13:23 | 52.51616 | 13.46493 | 36801 ft | 454 kts | 180° |
| 2026-05-06 13:23 | 52.45302 | 13.47096 | 36798 ft | 454 kts | 180° |
| 2026-05-06 13:24 | 52.38992 | 13.47697 | 36803 ft | 454 kts | 180° |
| 2026-05-06 13:24 | 52.32685 | 13.48296 | 36777 ft | 454 kts | 180° |
| 2026-05-06 13:25 | 52.26449 | 13.48887 | 36797 ft | 452 kts | 180° |
| 2026-05-06 13:25 | 52.20133 | 13.49480 | 36794 ft | 452 kts | 180° |
| 2026-05-06 13:26 | 52.13895 | 13.50063 | 36798 ft | 452 kts | 180° |
| 2026-05-06 13:26 | 52.07605 | 13.50652 | 36791 ft | 452 kts | 180° |
| 2026-05-06 13:27 | 52.01315 | 13.51240 | 36783 ft | 452 kts | 180° |
| 2026-05-06 13:27 | 51.95020 | 13.51828 | 36778 ft | 454 kts | 180° |
| 2026-05-06 13:28 | 51.88688 | 13.52417 | 36783 ft | 455 kts | 180° |
| 2026-05-06 13:28 | 51.82402 | 13.53001 | 36769 ft | 455 kts | 180° |
| 2026-05-06 13:29 | 51.76086 | 13.53587 | 36776 ft | 454 kts | 180° |
| 2026-05-06 13:29 | 51.69776 | 13.54170 | 36775 ft | 452 kts | 180° |
| 2026-05-06 13:30 | 51.63497 | 13.54748 | 36774 ft | 451 kts | 180° |
| 2026-05-06 13:30 | 51.57228 | 13.55323 | 36773 ft | 451 kts | 180° |
| 2026-05-06 13:31 | 51.50964 | 13.55896 | 36768 ft | 450 kts | 180° |
| 2026-05-06 13:31 | 51.44771 | 13.56463 | 36759 ft | 445 kts | 180° |
| 2026-05-06 13:32 | 51.38593 | 13.57025 | 36768 ft | 444 kts | 180° |
| 2026-05-06 13:32 | 51.32430 | 13.57579 | 36767 ft | 443 kts | 180° |
| 2026-05-06 13:33 | 51.26269 | 13.58134 | 36776 ft | 443 kts | 180° |
| 2026-05-06 13:33 | 51.20105 | 13.58690 | 36771 ft | 443 kts | 180° |
| 2026-05-06 13:34 | 51.13951 | 13.59244 | 36776 ft | 442 kts | 180° |
| 2026-05-06 13:34 | 51.07807 | 13.59797 | 36773 ft | 442 kts | 180° |
| 2026-05-06 13:35 | 51.01709 | 13.60343 | 36774 ft | 441 kts | 180° |
| 2026-05-06 13:35 | 50.95558 | 13.60892 | 36770 ft | 442 kts | 180° |
| 2026-05-06 13:36 | 50.89407 | 13.61440 | 36770 ft | 443 kts | 180° |
| 2026-05-06 13:36 | 50.83246 | 13.61988 | 36768 ft | 442 kts | 180° |
| 2026-05-06 13:37 | 50.77091 | 13.62534 | 36753 ft | 443 kts | 180° |
| 2026-05-06 13:37 | 50.70922 | 13.63251 | 36767 ft | 447 kts | 174° |
| 2026-05-06 13:38 | 50.64892 | 13.65628 | 36764 ft | 452 kts | 167° |
| 2026-05-06 13:38 | 50.58895 | 13.68632 | 36765 ft | 452 kts | 166° |
| 2026-05-06 13:39 | 50.52880 | 13.71588 | 36775 ft | 452 kts | 167° |
| 2026-05-06 13:39 | 50.46855 | 13.74454 | 36773 ft | 452 kts | 167° |
| 2026-05-06 13:40 | 50.40840 | 13.77278 | 36773 ft | 452 kts | 168° |
| 2026-05-06 13:40 | 50.35832 | 13.79621 | 36773 ft | 452 kts | 168° |
| 2026-05-06 13:41 | 50.29792 | 13.82442 | 36775 ft | 452 kts | 168° |
| 2026-05-06 13:41 | 50.23764 | 13.85251 | 36776 ft | 452 kts | 168° |
| 2026-05-06 13:42 | 50.17730 | 13.88056 | 36756 ft | 452 kts | 168° |
| 2026-05-06 13:42 | 50.11717 | 13.90845 | 36777 ft | 450 kts | 168° |
| 2026-05-06 13:43 | 50.05743 | 13.93606 | 36780 ft | 450 kts | 168° |
| 2026-05-06 13:43 | 49.99748 | 13.96372 | 36777 ft | 448 kts | 168° |
| 2026-05-06 13:44 | 49.93774 | 13.99120 | 36785 ft | 447 kts | 168° |
| 2026-05-06 13:44 | 49.87804 | 14.01845 | 36785 ft | 447 kts | 169° |
| 2026-05-06 13:45 | 49.81818 | 14.04564 | 36786 ft | 447 kts | 169° |
| 2026-05-06 13:45 | 49.72874 | 14.08638 | 36784 ft | 446 kts | 169° |
| 2026-05-06 13:46 | 49.66928 | 14.11342 | 36781 ft | 445 kts | 169° |
| 2026-05-06 13:46 | 49.61007 | 14.13905 | 36782 ft | 444 kts | 170° |
| 2026-05-06 13:47 | 49.55042 | 14.16371 | 36786 ft | 444 kts | 170° |
| 2026-05-06 13:47 | 49.49087 | 14.18824 | 36790 ft | 442 kts | 170° |
| 2026-05-06 13:48 | 49.43145 | 14.21274 | 36776 ft | 442 kts | 170° |
| 2026-05-06 13:48 | 49.37199 | 14.23725 | 36784 ft | 442 kts | 170° |
| 2026-05-06 13:49 | 49.31259 | 14.26167 | 36783 ft | 442 kts | 170° |
| 2026-05-06 13:49 | 49.25314 | 14.28606 | 36775 ft | 443 kts | 170° |
| 2026-05-06 13:50 | 49.19389 | 14.31030 | 36741 ft | 443 kts | 170° |
| 2026-05-06 13:50 | 49.13421 | 14.33466 | 36763 ft | 444 kts | 170° |
| 2026-05-06 13:51 | 49.07441 | 14.35900 | 36770 ft | 444 kts | 170° |
| 2026-05-06 13:51 | 49.01458 | 14.38330 | 36765 ft | 445 kts | 170° |
| 2026-05-06 13:52 | 48.95507 | 14.40741 | 36761 ft | 445 kts | 170° |
| 2026-05-06 13:52 | 48.89519 | 14.43161 | 36764 ft | 445 kts | 170° |
| 2026-05-06 13:53 | 48.83528 | 14.45571 | 36758 ft | 445 kts | 170° |
| 2026-05-06 13:53 | 48.77529 | 14.47965 | 36765 ft | 446 kts | 170° |
| 2026-05-06 13:54 | 48.71529 | 14.50363 | 36770 ft | 445 kts | 170° |
| 2026-05-06 13:54 | 48.65528 | 14.52762 | 36764 ft | 447 kts | 170° |
| 2026-05-06 13:55 | 48.59525 | 14.55159 | 36760 ft | 447 kts | 171° |
| 2026-05-06 13:55 | 48.53508 | 14.57554 | 36778 ft | 447 kts | 171° |
| 2026-05-06 13:56 | 48.47491 | 14.59944 | 36757 ft | 447 kts | 171° |
| 2026-05-06 13:56 | 48.41516 | 14.62311 | 36757 ft | 447 kts | 171° |
| 2026-05-06 13:57 | 48.35492 | 14.64696 | 36776 ft | 445 kts | 171° |
| 2026-05-06 13:57 | 48.29579 | 14.67148 | 36752 ft | 438 kts | 172° |
| 2026-05-06 13:58 | 48.23668 | 14.69408 | 36750 ft | 438 kts | 172° |
| 2026-05-06 13:58 | 48.17743 | 14.71682 | 36756 ft | 440 kts | 172° |
| 2026-05-06 13:59 | 48.14760 | 14.72839 | 36328 ft | 444 kts | 172° |
| 2026-05-06 13:59 | 48.11782 | 14.74001 | 35552 ft | 439 kts | 172° |
| 2026-05-06 13:59 | 48.08852 | 14.75153 | 34794 ft | 432 kts | 173° |
| 2026-05-06 13:59 | 48.05967 | 14.76288 | 34046 ft | 425 kts | 173° |
| 2026-05-06 14:00 | 48.03158 | 14.77383 | 33289 ft | 419 kts | 173° |
| 2026-05-06 14:00 | 48.00347 | 14.78470 | 32488 ft | 413 kts | 173° |
| 2026-05-06 14:00 | 47.97581 | 14.79537 | 31704 ft | 409 kts | 173° |
| 2026-05-06 14:00 | 47.94828 | 14.80596 | 30952 ft | 411 kts | 173° |
| 2026-05-06 14:01 | 47.92055 | 14.81800 | 30222 ft | 418 kts | 168° |
| 2026-05-06 14:01 | 47.89289 | 14.83251 | 29425 ft | 423 kts | 166° |
| 2026-05-06 14:01 | 47.86522 | 14.84784 | 28587 ft | 425 kts | 166° |
| 2026-05-06 14:01 | 47.83737 | 14.86326 | 27786 ft | 427 kts | 166° |
| 2026-05-06 14:02 | 47.80951 | 14.87843 | 26994 ft | 423 kts | 166° |
| 2026-05-06 14:02 | 47.78248 | 14.89300 | 26225 ft | 403 kts | 166° |
| 2026-05-06 14:02 | 47.75705 | 14.90655 | 25470 ft | 385 kts | 166° |
| 2026-05-06 14:02 | 47.73213 | 14.91965 | 24750 ft | 375 kts | 166° |
| 2026-05-06 14:03 | 47.70770 | 14.93235 | 24022 ft | 369 kts | 166° |
| 2026-05-06 14:03 | 47.68347 | 14.94486 | 23316 ft | 366 kts | 166° |
| 2026-05-06 14:03 | 47.65954 | 14.95722 | 22521 ft | 363 kts | 166° |
| 2026-05-06 14:03 | 47.63575 | 14.96951 | 21742 ft | 360 kts | 166° |
| 2026-05-06 14:04 | 47.61232 | 14.98162 | 20966 ft | 354 kts | 166° |
| 2026-05-06 14:04 | 47.58909 | 14.99363 | 20206 ft | 352 kts | 166° |
| 2026-05-06 14:04 | 47.56605 | 15.00553 | 19494 ft | 347 kts | 165° |
| 2026-05-06 14:04 | 47.54363 | 15.01715 | 18774 ft | 344 kts | 165° |
| 2026-05-06 14:05 | 47.52112 | 15.02886 | 18085 ft | 342 kts | 165° |
| 2026-05-06 14:05 | 47.49879 | 15.04039 | 17280 ft | 338 kts | 166° |
| 2026-05-06 14:05 | 47.47673 | 15.05175 | 16517 ft | 333 kts | 165° |
| 2026-05-06 14:05 | 47.45486 | 15.06299 | 15761 ft | 331 kts | 165° |
| 2026-05-06 14:06 | 47.43316 | 15.07416 | 15028 ft | 325 kts | 165° |
| 2026-05-06 14:06 | 47.41228 | 15.08496 | 14319 ft | 319 kts | 165° |
| 2026-05-06 14:06 | 47.39142 | 15.09571 | 13612 ft | 315 kts | 165° |
| 2026-05-06 14:06 | 47.37078 | 15.10633 | 12815 ft | 312 kts | 165° |
| 2026-05-06 14:07 | 47.35043 | 15.11669 | 12007 ft | 307 kts | 165° |
| 2026-05-06 14:07 | 47.33029 | 15.12692 | 11267 ft | 304 kts | 165° |
| 2026-05-06 14:07 | 47.31035 | 15.13706 | 10533 ft | 304 kts | 165° |
| 2026-05-06 14:07 | 47.29014 | 15.14730 | 9806 ft | 309 kts | 165° |
| 2026-05-06 14:08 | 47.26994 | 15.15759 | 9034 ft | 306 kts | 164° |
| 2026-05-06 14:08 | 47.25027 | 15.16769 | 8526 ft | 297 kts | 165° |
| 2026-05-06 14:08 | 47.23148 | 15.17733 | 7940 ft | 277 kts | 165° |
| 2026-05-06 14:08 | 47.21345 | 15.18653 | 7119 ft | 273 kts | 165° |
| 2026-05-06 14:09 | 47.19553 | 15.19563 | 6279 ft | 271 kts | 165° |
| 2026-05-06 14:09 | 47.17771 | 15.20471 | 5404 ft | 270 kts | 165° |
| 2026-05-06 14:09 | 47.16010 | 15.21361 | 4956 ft | 265 kts | 165° |
| 2026-05-06 14:09 | 47.14300 | 15.22220 | 4552 ft | 255 kts | 163° |
| 2026-05-06 14:10 | 47.12633 | 15.23064 | 4196 ft | 252 kts | 163° |
| 2026-05-06 14:10 | 47.10936 | 15.23918 | 4057 ft | 268 kts | 163° |
| 2026-05-06 14:10 | 47.09143 | 15.24824 | 4010 ft | 274 kts | 163° |
| 2026-05-06 14:10 | 47.07336 | 15.25737 | 4011 ft | 275 kts | 163° |
| 2026-05-06 14:11 | 47.05524 | 15.26653 | 4010 ft | 275 kts | 164° |
| 2026-05-06 14:11 | 47.03717 | 15.27563 | 4007 ft | 274 kts | 163° |
| 2026-05-06 14:11 | 47.01916 | 15.28473 | 4011 ft | 273 kts | 164° |
| 2026-05-06 14:11 | 47.00113 | 15.29381 | 4008 ft | 274 kts | 163° |
| 2026-05-06 14:12 | 46.98330 | 15.30280 | 4005 ft | 274 kts | 163° |
| 2026-05-06 14:12 | 46.96518 | 15.31197 | 4015 ft | 278 kts | 163° |
| 2026-05-06 14:12 | 46.94694 | 15.32116 | 3992 ft | 274 kts | 166° |
| 2026-05-06 14:12 | 46.92894 | 15.33006 | 4024 ft | 273 kts | 167° |
| 2026-05-06 14:13 | 46.91063 | 15.33745 | 3976 ft | 272 kts | 170° |
| 2026-05-06 14:13 | 46.89222 | 15.34398 | 3821 ft | 271 kts | 171° |
| 2026-05-06 14:13 | 46.87383 | 15.35027 | 3674 ft | 271 kts | 171° |
| 2026-05-06 14:13 | 46.85554 | 15.35646 | 3550 ft | 269 kts | 171° |
| 2026-05-06 14:14 | 46.83732 | 15.36277 | 3528 ft | 268 kts | 171° |
| 2026-05-06 14:14 | 46.81928 | 15.36894 | 3516 ft | 265 kts | 170° |
| 2026-05-06 14:14 | 46.80227 | 15.37997 | 3498 ft | 275 kts | 146° |
| 2026-05-06 14:14 | 46.79106 | 15.40292 | 3520 ft | 289 kts | 114° |
| 2026-05-06 14:15 | 46.78925 | 15.43222 | 3481 ft | 288 kts | 83° |
| 2026-05-06 14:15 | 46.79636 | 15.45783 | 3522 ft | 266 kts | 55° |
| 2026-05-06 14:15 | 46.80898 | 15.47641 | 3487 ft | 249 kts | 34° |
| 2026-05-06 14:15 | 46.82408 | 15.48433 | 3457 ft | 225 kts | 358° |
| 2026-05-06 14:16 | 46.83929 | 15.48172 | 3525 ft | 216 kts | 343° |
| 2026-05-06 14:16 | 46.85367 | 15.47741 | 3510 ft | 208 kts | 343° |
| 2026-05-06 14:16 | 46.86723 | 15.47361 | 3285 ft | 189 kts | 343° |
| 2026-05-06 14:16 | 46.87988 | 15.47015 | 3015 ft | 184 kts | 343° |
| 2026-05-06 14:17 | 46.89254 | 15.46656 | 2799 ft | 186 kts | 341° |
| 2026-05-06 14:17 | 46.90521 | 15.46296 | 2564 ft | 184 kts | 342° |
| 2026-05-06 14:17 | 46.91780 | 15.45956 | 2317 ft | 183 kts | 343° |
| 2026-05-06 14:17 | 46.93019 | 15.45622 | 2078 ft | 180 kts | 343° |
| 2026-05-06 14:18 | 46.94248 | 15.45289 | 1807 ft | 183 kts | 344° |
| 2026-05-06 14:18 | 46.95483 | 15.44936 | 1586 ft | 180 kts | 346° |
| 2026-05-06 14:18 | 46.96761 | 15.44595 | 1367 ft | 188 kts | 348° |
| 2026-05-06 14:18 | 46.97992 | 15.44263 | 1114 ft | 172 kts | 347° |
| 2026-05-06 14:19 | 46.99016 | 15.43982 | 1108 ft | 122 kts | 348° |
| 2026-05-06 14:19 | 46.99655 | 15.43849 | 1118 ft | 64 kts | 7° |
| 2026-05-06 14:19 | 46.99908 | 15.43966 | 1115 ft | 21 kts | 48° |
| 2026-05-06 14:19 | 46.99922 | 15.44142 | 1119 ft | 16 kts | 106° |
| 2026-05-06 14:20 | 46.99875 | 15.44269 | 1117 ft | 6 kts | 124° |
| 2026-05-06 14:20 | 46.99874 | 15.44271 | 1124 ft | 0 kts | 124° |